Pino Ladra — ECGJ — position and weather

sailwx.info

Track history (hours):
 
Tides and Currents Weather Stations Pressure Air Temp Water Temp Dewpoint Dewpoint Depression Visibility Wind Speed Wind Dir Waves Ship Positions

Pino Ladra

Last reported at 2017-Apr-03 01:38 UTC. Time now 2017-Jun-23 01:58 UTC.
Position N 43°52' W 007°31'.
Warning: this ship's position is months out of date.

Length 32 m; draft 7.4 m.

Type: Fishing. MMSI: 224134550.

Date/timePositionNaut miles runAvg speedWind from/ knotsBaromVisibWave heightAir tempDewpointWater temp
2017-Apr-03 01:38N 43°52' W 007°31'1 3.3
2017-Apr-03 01:28N 43°51' W 007°30'2 3.3
2017-Apr-03 01:00N 43°50' W 007°29'2 3.4
2017-Apr-03 00:25N 43°49' W 007°27'2 3.3
2017-Apr-02 23:56N 43°48' W 007°26'5 4.2
2017-Apr-02 22:41N 43°45' W 007°32'2 8.5
2017-Apr-02 22:30N 43°44' W 007°34'4 7.4
2017-Apr-02 22:01N 43°41' W 007°36'  
2017-Mar-31 15:25N 43°41' W 007°36'0 0.0
2017-Mar-31 15:01N 43°41' W 007°36'0 0.1
2017-Mar-31 14:00N 43°41' W 007°36'0 0.9
2017-Mar-31 13:31N 43°41' W 007°36'5 8.9
2017-Mar-31 13:00N 43°45' W 007°32'7 0.3
2017-Mar-30 08:33N 43°49' W 007°40'3 3.2
2017-Mar-30 07:33N 43°48' W 007°36'2 1.7
2017-Mar-30 06:33N 43°47' W 007°34'4 4.0
2017-Mar-30 05:33N 43°46' W 007°28'6 0.9
2017-Mar-29 23:05N 43°52' W 007°31'2 3.8
2017-Mar-29 22:33N 43°50' W 007°29'3 0.5
2017-Mar-29 16:30N 43°47' W 007°32'2 2.4
2017-Mar-29 15:33N 43°48' W 007°35'3 3.2
2017-Mar-29 14:31N 43°49' W 007°30'3 0.2
2017-Mar-28 23:24N 43°52' W 007°31'3 3.2
2017-Mar-28 22:29N 43°50' W 007°28'3 3.2
2017-Mar-28 21:29N 43°47' W 007°25'1 0.4
2017-Mar-28 18:15N 43°46' W 007°27'5 2.8
2017-Mar-28 16:33N 43°47' W 007°33'3 3.0
2017-Mar-28 15:33N 43°48' W 007°37'4 3.7
2017-Mar-28 14:33N 43°47' W 007°32'5 1.3
2017-Mar-28 10:29N 43°51' W 007°30'0 0.0
2017-Mar-28 01:22N 43°52' W 007°30'6 0.9
2017-Mar-27 18:14N 43°45' W 007°32'710.2
2017-Mar-27 17:33N 43°49' W 007°40'1 1.0
2017-Mar-27 16:33N 43°49' W 007°39'3 3.2
2017-Mar-27 15:33N 43°48' W 007°35'3 3.1
2017-Mar-27 14:33N 43°47' W 007°31'5 0.4
2017-Mar-27 01:24N 43°52' W 007°31'3 3.3
2017-Mar-27 00:32N 43°50' W 007°28'6 2.9
2017-Mar-26 22:31N 43°45' W 007°32'5 4.9
2017-Mar-26 21:33N 43°41' W 007°36'  
2017-Mar-24 16:22N 43°41' W 007°36'0 0.0
2017-Mar-24 15:34N 43°41' W 007°36'0 0.0
2017-Mar-24 14:31N 43°41' W 007°36'0 0.1
2017-Mar-24 13:33N 43°41' W 007°36'2 2.4
2017-Mar-24 12:33N 43°43' W 007°36'7 6.6
2017-Mar-24 11:32N 43°50' W 007°37'  
Track history (hours):
 
Tides and Currents Weather Stations Pressure Air Temp Water Temp Dewpoint Dewpoint Depression Visibility Wind Speed Wind Dir Waves Ship Positions

Pino Ladra

Last reported at 2017-Apr-03 01:38 UTC. Time now 2017-Jun-23 01:58 UTC.
Position N 43°52' W 007°31'.
Warning: this ship's position is months out of date.

Length 32 m; draft 7.4 m.

Type: Fishing. MMSI: 224134550.

Date/timePositionNaut miles runAvg speedWind from/ knotsBaromVisibWave heightAir tempDewpointWater temp
2017-Apr-03 01:38N 43°52' W 007°31'1 3.3
2017-Apr-03 01:28N 43°51' W 007°30'2 3.3
2017-Apr-03 01:00N 43°50' W 007°29'2 3.4
2017-Apr-03 00:25N 43°49' W 007°27'2 3.3
2017-Apr-02 23:56N 43°48' W 007°26'5 4.2
2017-Apr-02 22:41N 43°45' W 007°32'2 8.5
2017-Apr-02 22:30N 43°44' W 007°34'4 7.4
2017-Apr-02 22:01N 43°41' W 007°36'  
2017-Mar-31 15:25N 43°41' W 007°36'0 0.0
2017-Mar-31 15:01N 43°41' W 007°36'0 0.1
2017-Mar-31 14:00N 43°41' W 007°36'0 0.9
2017-Mar-31 13:31N 43°41' W 007°36'5 8.9
2017-Mar-31 13:00N 43°45' W 007°32'7 0.3
2017-Mar-30 08:33N 43°49' W 007°40'3 3.2
2017-Mar-30 07:33N 43°48' W 007°36'2 1.7
2017-Mar-30 06:33N 43°47' W 007°34'4 4.0
2017-Mar-30 05:33N 43°46' W 007°28'6 0.9
2017-Mar-29 23:05N 43°52' W 007°31'2 3.8
2017-Mar-29 22:33N 43°50' W 007°29'3 0.5
2017-Mar-29 16:30N 43°47' W 007°32'2 2.4
2017-Mar-29 15:33N 43°48' W 007°35'3 3.2
2017-Mar-29 14:31N 43°49' W 007°30'3 0.2
2017-Mar-28 23:24N 43°52' W 007°31'3 3.2
2017-Mar-28 22:29N 43°50' W 007°28'3 3.2
2017-Mar-28 21:29N 43°47' W 007°25'1 0.4
2017-Mar-28 18:15N 43°46' W 007°27'5 2.8
2017-Mar-28 16:33N 43°47' W 007°33'3 3.0
2017-Mar-28 15:33N 43°48' W 007°37'4 3.7
2017-Mar-28 14:33N 43°47' W 007°32'5 1.3
2017-Mar-28 10:29N 43°51' W 007°30'0 0.0
2017-Mar-28 01:22N 43°52' W 007°30'6 0.9
2017-Mar-27 18:14N 43°45' W 007°32'710.2
2017-Mar-27 17:33N 43°49' W 007°40'1 1.0
2017-Mar-27 16:33N 43°49' W 007°39'3 3.2
2017-Mar-27 15:33N 43°48' W 007°35'3 3.1
2017-Mar-27 14:33N 43°47' W 007°31'5 0.4
2017-Mar-27 01:24N 43°52' W 007°31'3 3.3
2017-Mar-27 00:32N 43°50' W 007°28'6 2.9
2017-Mar-26 22:31N 43°45' W 007°32'5 4.9
2017-Mar-26 21:33N 43°41' W 007°36'  
2017-Mar-24 16:22N 43°41' W 007°36'0 0.0
2017-Mar-24 15:34N 43°41' W 007°36'0 0.0
2017-Mar-24 14:31N 43°41' W 007°36'0 0.1
2017-Mar-24 13:33N 43°41' W 007°36'2 2.4
2017-Mar-24 12:33N 43°43' W 007°36'7 6.6
2017-Mar-24 11:32N 43°50' W 007°37'  

Dump ship's entire track history